Aeroporto :
LOGIN :

Iscrizione | Disclaimer

   EN    FR    IT 

 










Sommario :    VFR   VFR Marginale   IFR   IFR Intensivo   IFR Molto Intensivo
Visibilità : 
Base nubi : 
>= 8 km
>= 3000ft
5 / 8 km
1000 / 3000 ft
1500m / 5 km
500 / 1000 ft
800 / 1500m
200 / 500 ft
< 800m
< 200 ft
Simboli :   Temporali  Nebbia  Neve Forte  Precipitazioni Forti  Vento > 20 kt
SIGMETs :   Varie  Temporali  Ghiacco  Turbolenza  Onda orograficha  Ceneri Vulcaniche






- Altitudine del aeroporto : 405 ft
- Codice IATA : SUJ


LRSM - Satu Mare

ULTIMO METAR :
  • 050730Z 12008KT 090V150 CAVOK 12/05 Q1015

METARs OBSOLETI :
  • 050700Z 13009KT CAVOK 11/05 Q1014
  • 050630Z 13010KT CAVOK 10/05 Q1014
  • 050600Z 13011KT CAVOK 10/04 Q1013
  • 050530Z 13012KT CAVOK 10/04 Q1013
  • 050500Z 13010KT CAVOK 10/04 Q1013

TAF TAF LRSM
Valido dal 05 a 06 ore il 05 a 15 ore UTC


050500Z 0506/0515 14012KT CAVOK



MetMap, La meteo Aeronautica in un colpo d'occhio ! - Copyright ORBIFLY Dicembre 2007 - Disclaimer

ORBIFLY MET'MAP TEAM :

Programmazione e sviluppo : Alexandra Zaïnal
Concezione : Baudouin d'Aumeries
Aiuto per la programmazione : Marc-Olivier Méhu
Supporto tecnico e logistico : Manuel Goepfert
Aiuto per la traduzione : Arnaldo La Scala

Contatto : metmap@orbifly.com




FONTI E CREDITI :

   NOAA